createdAt,value
2018-08-23T00:02:02.206Z,35.93
2018-08-23T00:05:56.964Z,33.93
2018-08-23T00:09:52.515Z,31.93
2018-08-23T00:13:46.643Z,34.53
2018-08-23T00:17:47.226Z,31.27
2018-08-23T00:21:42.902Z,31.83
2018-08-23T00:25:37.477Z,33.97
2018-08-23T00:29:33.146Z,30.17
2018-08-23T00:33:27.301Z,29.23
2018-08-23T00:37:21.245Z,30.13
2018-08-23T00:41:15.196Z,29.00
2018-08-23T00:45:16.546Z,28.67
2018-08-23T00:49:10.550Z,33.10
2018-08-23T00:53:04.586Z,32.90
2018-08-23T00:56:59.488Z,38.80
2018-08-23T01:00:57.714Z,33.70
2018-08-23T01:04:51.712Z,33.57
2018-08-23T01:08:45.648Z,35.03
2018-08-23T01:12:51.034Z,39.27
2018-08-23T01:16:56.024Z,34.97
2018-08-23T01:20:51.760Z,36.77
2018-08-23T01:24:47.955Z,41.67
2018-08-23T01:28:41.976Z,45.60
2018-08-23T01:32:35.951Z,41.53
2018-08-23T01:36:33.063Z,40.77
2018-08-23T01:40:27.034Z,43.77
2018-08-23T01:44:21.815Z,39.10
2018-08-23T01:48:15.766Z,44.70
2018-08-23T01:52:09.745Z,41.70
2018-08-23T01:56:03.748Z,39.57
2018-08-23T01:59:57.728Z,42.47
2018-08-23T02:03:51.718Z,42.43
2018-08-23T02:07:45.650Z,39.07
2018-08-23T02:11:39.697Z,44.73
2018-08-23T02:15:41.867Z,43.43
2018-08-23T02:19:42.841Z,42.43
2018-08-23T02:23:47.468Z,41.00
2018-08-23T02:28:04.517Z,38.23
2018-08-23T02:31:58.421Z,40.03
2018-08-23T02:36:22.424Z,36.67
2018-08-23T02:40:16.334Z,38.77
2018-08-23T02:44:10.331Z,37.33
2018-08-23T02:48:04.922Z,38.10
2018-08-23T02:51:58.868Z,39.20
2018-08-23T02:55:53.659Z,39.47
2018-08-23T02:59:47.633Z,36.13
2018-08-23T03:03:52.675Z,37.23
2018-08-23T03:07:46.727Z,35.43
2018-08-23T03:11:40.696Z,38.23
2018-08-23T03:15:34.698Z,42.43
2018-08-23T03:19:28.674Z,44.10
2018-08-23T03:23:22.646Z,44.83
2018-08-23T03:27:16.619Z,44.77
2018-08-23T03:31:10.551Z,45.40
2018-08-23T03:35:04.482Z,47.13
2018-08-23T03:38:58.486Z,49.57
2018-08-23T03:42:52.496Z,51.30
2018-08-23T03:46:56.009Z,48.37
2018-08-23T03:50:52.508Z,53.63
2018-08-23T03:55:01.506Z,50.77
2018-08-23T03:58:55.507Z,52.03
2018-08-23T04:02:49.488Z,53.57
2018-08-23T04:06:43.520Z,55.70
2018-08-23T04:10:37.478Z,58.23
2018-08-23T04:14:31.415Z,56.63
2018-08-23T04:18:25.401Z,64.93
2018-08-23T04:22:19.407Z,60.53
2018-08-23T04:26:13.435Z,64.37
2018-08-23T04:30:07.977Z,70.73
2018-08-23T04:34:05.238Z,59.47
2018-08-23T04:37:59.154Z,69.40
2018-08-23T04:41:59.385Z,67.77
2018-08-23T04:45:53.346Z,66.63
2018-08-23T04:49:47.440Z,70.73
2018-08-23T04:53:41.501Z,64.27
2018-08-23T04:57:35.499Z,71.10
2018-08-23T05:01:29.465Z,66.93
2018-08-23T05:05:23.440Z,69.43
2018-08-23T05:09:17.427Z,66.53
2018-08-23T05:13:11.438Z,61.60
2018-08-23T05:17:05.379Z,67.17
2018-08-23T05:20:59.389Z,65.37
2018-08-23T05:24:54.813Z,67.53
2018-08-23T05:29:01.031Z,70.10
2018-08-23T05:32:59.325Z,60.40
2018-08-23T05:36:53.282Z,59.40
2018-08-23T05:40:53.439Z,70.53
2018-08-23T05:44:47.481Z,58.27
2018-08-23T05:48:41.458Z,74.90
2018-08-23T05:52:35.475Z,63.50
2018-08-23T05:56:29.444Z,51.13
2018-08-23T06:00:23.419Z,67.57
2018-08-23T06:04:18.344Z,59.90
2018-08-23T06:08:12.614Z,61.23
2018-08-23T06:12:06.781Z,63.03
2018-08-23T06:16:00.754Z,64.80
2018-08-23T06:19:54.899Z,60.17
2018-08-23T06:24:00.103Z,66.70
2018-08-23T06:27:54.916Z,58.13
2018-08-23T06:31:55.303Z,56.13
2018-08-23T06:35:49.400Z,52.43
2018-08-23T06:39:43.727Z,52.87
2018-08-23T06:43:37.722Z,54.10
2018-08-23T06:47:31.690Z,59.40
2018-08-23T06:51:25.662Z,50.43
2018-08-23T06:55:27.790Z,55.07
2018-08-23T06:59:21.843Z,51.93
2018-08-23T07:03:15.854Z,48.30
2018-08-23T07:07:14.165Z,49.53
2018-08-23T07:11:14.450Z,50.97
2018-08-23T07:15:08.626Z,46.43
2018-08-23T07:19:04.089Z,48.90
2018-08-23T07:22:58.135Z,48.83
2018-08-23T07:26:52.103Z,53.13
2018-08-23T07:30:46.203Z,48.87
2018-08-23T07:34:40.264Z,51.20
2018-08-23T07:38:34.252Z,53.33
2018-08-23T07:42:29.379Z,52.93
2018-08-23T07:46:23.547Z,53.20
2018-08-23T07:50:17.509Z,51.37
2018-08-23T07:54:15.692Z,53.93
2018-08-23T07:58:10.479Z,52.23
2018-08-23T08:02:04.731Z,57.27
2018-08-23T08:05:58.764Z,57.53
2018-08-23T08:09:52.763Z,50.33
2018-08-23T08:13:46.816Z,46.37
2018-08-23T08:17:41.475Z,43.37
2018-08-23T08:21:35.665Z,41.23
2018-08-23T08:25:29.555Z,35.97
2018-08-23T08:29:28.892Z,38.87
2018-08-23T08:33:22.931Z,39.73
2018-08-23T08:37:16.934Z,35.00
2018-08-23T08:41:10.905Z,30.83
2018-08-23T08:45:10.788Z,35.53
2018-08-23T08:49:04.761Z,31.77
2018-08-23T08:52:58.672Z,31.17
2018-08-23T08:56:53.229Z,30.77
2018-08-23T09:00:50.943Z,30.73
2018-08-23T09:04:44.874Z,27.10
2018-08-23T09:08:39.425Z,26.40
2018-08-23T09:12:33.835Z,21.13
2018-08-23T09:16:27.790Z,24.50
2018-08-23T09:20:21.865Z,26.57
2018-08-23T09:24:26.422Z,20.73
2018-08-23T09:28:20.488Z,18.00
2018-08-23T09:32:21.462Z,20.47
2018-08-23T09:36:15.533Z,20.80
2018-08-23T09:40:10.244Z,24.70
2018-08-23T09:44:04.195Z,27.80
2018-08-23T09:47:58.244Z,18.50
2018-08-23T09:51:52.188Z,18.90
2018-08-23T09:55:47.654Z,17.67
2018-08-23T09:59:43.241Z,16.35
2018-08-23T10:03:42.599Z,28.07
2018-08-23T10:07:42.016Z,20.33
2018-08-23T10:12:43.865Z,15.90
2018-08-23T10:16:43.396Z,17.40
2018-08-23T10:20:44.740Z,18.07
2018-08-23T10:24:38.912Z,15.95
2018-08-23T10:28:38.348Z,11.93
2018-08-23T10:32:32.430Z,11.40
2018-08-23T10:36:26.533Z,11.22
2018-08-23T10:40:21.262Z,11.80
2018-08-23T10:44:15.419Z,8.68
2018-08-23T10:48:14.907Z,8.35
2018-08-23T10:52:08.974Z,9.15
2018-08-23T10:56:03.150Z,6.95
2018-08-23T10:59:58.152Z,7.78
2018-08-23T11:03:52.231Z,7.78
2018-08-23T11:07:51.645Z,12.95
2018-08-23T11:11:45.694Z,9.20
2018-08-23T11:15:39.722Z,8.25
2018-08-23T11:19:39.230Z,12.50
2018-08-23T11:23:33.332Z,7.75
2018-08-23T11:27:27.450Z,7.70
2018-08-23T11:31:26.892Z,8.00
2018-08-23T11:35:21.426Z,8.05
2018-08-23T11:39:16.301Z,10.30
2018-08-23T11:43:10.417Z,10.20
2018-08-23T11:47:04.353Z,11.33
2018-08-23T11:50:58.481Z,10.30
2018-08-23T11:54:52.499Z,10.30
2018-08-23T11:58:46.566Z,11.30
2018-08-23T12:02:43.115Z,13.78
2018-08-23T12:06:37.320Z,14.43
2018-08-23T12:10:31.671Z,16.37
2018-08-23T12:14:25.999Z,18.30
2018-08-23T12:18:20.100Z,14.38
2018-08-23T12:22:14.091Z,10.80
2018-08-23T12:26:08.097Z,11.57
2018-08-23T12:30:04.737Z,16.05
2018-08-23T12:33:59.446Z,17.85
2018-08-23T12:38:00.788Z,16.27
2018-08-23T12:42:00.289Z,20.68
2018-08-23T12:46:00.075Z,21.93
2018-08-23T12:49:58.345Z,19.62
2018-08-23T12:53:52.380Z,16.40
2018-08-23T12:57:46.321Z,14.05
2018-08-23T13:01:40.395Z,20.68
2018-08-23T13:05:34.484Z,21.90
2018-08-23T13:09:28.552Z,16.70
2018-08-23T13:13:22.567Z,14.65
2018-08-23T13:17:16.674Z,15.43
2018-08-23T13:21:10.659Z,17.12
2018-08-23T13:25:04.726Z,15.05
2018-08-23T13:28:58.683Z,18.65
2018-08-23T13:32:52.795Z,14.00
2018-08-23T13:36:47.015Z,12.93
2018-08-23T13:40:41.465Z,15.65
2018-08-23T13:44:35.544Z,17.90
2018-08-23T13:48:29.729Z,20.12
2018-08-23T13:52:23.597Z,13.43
2018-08-23T13:56:17.580Z,14.75
2018-08-23T14:00:17.799Z,20.68
2018-08-23T14:04:11.833Z,12.30
2018-08-23T14:08:05.904Z,9.15
2018-08-23T14:11:59.903Z,7.67
2018-08-23T14:15:59.349Z,8.78
2018-08-23T14:19:53.528Z,13.38
2018-08-23T14:23:47.661Z,23.70
2018-08-23T14:27:42.032Z,10.85
2018-08-23T14:31:36.079Z,8.88
2018-08-23T14:35:30.048Z,20.30
2018-08-23T14:39:24.046Z,13.93
2018-08-23T14:43:18.181Z,8.80
2018-08-23T14:47:17.673Z,10.23
2018-08-23T14:51:13.792Z,10.53
2018-08-23T14:55:07.845Z,12.15
2018-08-23T14:59:01.777Z,13.00
2018-08-23T15:02:55.814Z,11.03
2018-08-23T15:06:49.874Z,12.70
2018-08-23T15:10:43.868Z,12.15
2018-08-23T15:14:38.154Z,12.95
2018-08-23T15:18:32.059Z,14.47
2018-08-23T15:22:26.188Z,14.03
2018-08-23T15:26:20.413Z,12.98
2018-08-23T15:30:14.333Z,15.60
2018-08-23T15:34:08.566Z,16.45
2018-08-23T15:38:02.551Z,16.93
2018-08-23T15:41:56.651Z,10.35
2018-08-23T15:45:50.741Z,9.88
2018-08-23T15:49:44.811Z,8.33
2018-08-23T15:53:38.762Z,9.73
2018-08-23T15:57:32.782Z,8.73
2018-08-23T16:01:26.799Z,8.93
2018-08-23T16:05:20.855Z,11.10
2018-08-23T16:09:14.856Z,10.40
2018-08-23T16:13:08.899Z,7.50
2018-08-23T16:17:08.206Z,9.73
2018-08-23T16:21:02.234Z,6.80
2018-08-23T16:24:56.355Z,11.45
2018-08-23T16:28:51.197Z,8.83
2018-08-23T16:32:45.175Z,7.12
2018-08-23T16:36:39.203Z,8.60
2018-08-23T16:40:33.354Z,7.55
2018-08-23T16:44:27.335Z,9.38
2018-08-23T16:48:21.343Z,8.87
2018-08-23T16:52:15.339Z,10.43
2018-08-23T16:56:09.290Z,10.20
2018-08-23T17:00:03.319Z,7.40
2018-08-23T17:03:58.010Z,14.73
2018-08-23T17:07:52.030Z,14.10
2018-08-23T17:11:46.043Z,28.50
2018-08-23T17:15:45.349Z,14.03
2018-08-23T17:19:39.397Z,9.20
2018-08-23T17:23:34.094Z,13.13
2018-08-23T17:27:28.163Z,9.90
2018-08-23T17:31:22.214Z,8.10
2018-08-23T17:35:16.214Z,8.07
2018-08-23T17:39:10.591Z,12.70
2018-08-23T17:43:04.570Z,8.17
2018-08-23T17:46:58.613Z,8.40
2018-08-23T17:50:52.606Z,8.27
2018-08-23T17:54:46.623Z,9.50
2018-08-23T17:58:41.002Z,8.50
2018-08-23T18:02:36.316Z,10.50
2018-08-23T18:06:30.383Z,7.53
2018-08-23T18:10:24.369Z,13.43
2018-08-23T18:14:18.716Z,8.90
2018-08-23T18:18:12.792Z,15.47
2018-08-23T18:22:06.904Z,15.07
2018-08-23T18:26:01.167Z,7.47
2018-08-23T18:29:55.236Z,7.73
2018-08-23T18:33:49.339Z,6.37
2018-08-23T18:37:43.391Z,5.17
2018-08-23T18:41:37.785Z,5.40
2018-08-23T18:45:31.797Z,8.47
2018-08-23T18:49:25.811Z,9.40
2018-08-23T18:53:20.069Z,10.80
2018-08-23T18:57:14.011Z,9.27
2018-08-23T19:01:08.075Z,7.50
2018-08-23T19:05:02.009Z,8.13
2018-08-23T19:08:56.051Z,4.93
2018-08-23T19:12:50.139Z,5.70
2018-08-23T19:16:49.485Z,5.35
2018-08-23T19:20:43.449Z,5.97
2018-08-23T19:24:37.465Z,7.47
2018-08-23T19:28:31.587Z,5.07
2018-08-23T19:32:25.546Z,7.90
2018-08-23T19:36:19.554Z,6.03
2018-08-23T19:40:13.528Z,4.13
2018-08-23T19:44:07.675Z,7.13
2018-08-23T19:48:01.760Z,6.60
2018-08-23T19:51:55.962Z,4.73
2018-08-23T19:55:49.931Z,4.07
2018-08-23T19:59:43.927Z,7.77
2018-08-23T20:03:37.945Z,4.27
2018-08-23T20:07:31.877Z,3.63
2018-08-23T20:11:25.921Z,3.90
2018-08-23T20:15:25.882Z,3.97
2018-08-23T20:19:20.343Z,7.00
2018-08-23T20:23:14.274Z,4.10
2018-08-23T20:27:08.222Z,6.27
2018-08-23T20:31:02.276Z,3.30
2018-08-23T20:34:56.311Z,2.70
2018-08-23T20:38:50.379Z,8.67
2018-08-23T20:42:44.422Z,5.20
2018-08-23T20:46:38.947Z,2.83
2018-08-23T20:50:33.468Z,4.20
2018-08-23T20:54:27.430Z,5.97
2018-08-23T20:58:21.513Z,3.30
2018-08-23T21:02:15.580Z,2.77
2018-08-23T21:06:09.592Z,2.40
2018-08-23T21:10:03.793Z,2.30
2018-08-23T21:13:57.655Z,5.60
2018-08-23T21:17:51.626Z,5.00
2018-08-23T21:21:46.635Z,2.53
2018-08-23T21:25:40.749Z,4.13
2018-08-23T21:29:34.819Z,4.37
2018-08-23T21:33:28.879Z,2.83
2018-08-23T21:37:22.804Z,2.27
2018-08-23T21:41:16.775Z,4.20
2018-08-23T21:45:10.883Z,6.73
2018-08-23T21:49:04.871Z,2.77
2018-08-23T21:52:58.860Z,2.42
2018-08-23T21:56:52.812Z,2.35
2018-08-23T22:00:52.119Z,3.23
2018-08-23T22:04:51.673Z,3.27
2018-08-23T22:08:45.700Z,2.70
2018-08-23T22:12:39.648Z,3.07
2018-08-23T22:16:33.769Z,2.90
2018-08-23T22:20:27.702Z,3.23
2018-08-23T22:24:21.674Z,6.03
2018-08-23T22:28:15.650Z,2.50
2018-08-23T22:32:09.837Z,2.35
2018-08-23T22:36:03.894Z,2.53
2018-08-23T22:39:57.876Z,2.00
2018-08-23T22:43:51.848Z,1.73
2018-08-23T22:47:45.893Z,4.30
2018-08-23T22:51:39.906Z,1.73
2018-08-23T22:55:33.855Z,2.73
2018-08-23T22:59:27.827Z,2.90
2018-08-23T23:03:27.235Z,4.20
2018-08-23T23:07:21.251Z,4.40
2018-08-23T23:11:15.254Z,2.70
2018-08-23T23:15:14.687Z,1.97
2018-08-23T23:19:08.646Z,1.40
2018-08-23T23:23:02.887Z,2.13
2018-08-23T23:26:57.265Z,1.30
2018-08-23T23:30:51.272Z,1.53
2018-08-23T23:34:45.246Z,2.67
2018-08-23T23:38:39.218Z,3.43
2018-08-23T23:42:33.244Z,2.03
2018-08-23T23:46:27.202Z,7.57
2018-08-23T23:50:21.252Z,2.37
